weather.gov     
National Weather Service

Terminal Aerodrome Forecast
NWS Homepage
This page is being discontinued on March 12, 2014.
The same data is available at this site. Please update your bookmarks.
Thank you, and we apologize for the inconvenience.
Please send an email to SR-SRH.Webmaster@noaa.gov with any concerns.


Current Version
Previous Version:    01  02  03  04  05  06  07  08  09  10  11  12  13  14  15  16  17  18  19  20  21  22  23  24  25  26  27  28  29  30  
   31  32  33  34  35  36  37  
[Printable]
664
FTUS44 KLZK 231000 AAA
TAFLLQ
TAF AMD
KLLQ 231015Z 2310/2406 13007KT P6SM VCSH OVC007 WS020/18035KT
      TEMPO 2310/2314 5SM -RA BR SCT007 OVC012
     FM231400 16007KT 6SM -RA OVC012
     FM231900 21009G16KT P6SM VCSH SCT025 BKN050
      TEMPO 2319/2321 5SM -RA BR BKN025
     FM240000 23012G22KT P6SM BKN060=


U.S. Dept. of Commerce
NOAA National Weather Service
1325 East West Highway
Silver Spring, MD 20910
E-mail: w-nws.webmaster@noaa.gov
Page last modified: May 16, 2007
NATIONAL WEATHER SERVICE: for Safety, for Work, for Fun - FOR LIFE